sensor_id;sensor_type;location;lat;lon;timestamp;P1;durP1;ratioP1;P2;durP2;ratioP2
13061;SDS011;6597;52.218;9.882;2023-04-30T00:00:58;3.70;;;2.30;;
13061;SDS011;6597;52.218;9.882;2023-04-30T00:03:24;6.57;;;3.17;;
13061;SDS011;6597;52.218;9.882;2023-04-30T00:05:51;7.17;;;2.83;;
13061;SDS011;6597;52.218;9.882;2023-04-30T00:08:17;3.53;;;2.20;;
13061;SDS011;6597;52.218;9.882;2023-04-30T00:10:44;7.77;;;3.13;;
13061;SDS011;6597;52.218;9.882;2023-04-30T00:13:10;5.17;;;3.00;;
13061;SDS011;6597;52.218;9.882;2023-04-30T00:15:38;2.70;;;2.30;;
13061;SDS011;6597;52.218;9.882;2023-04-30T00:18:06;9.63;;;2.83;;
13061;SDS011;6597;52.218;9.882;2023-04-30T00:20:32;8.33;;;2.53;;
13061;SDS011;6597;52.218;9.882;2023-04-30T00:22:59;4.90;;;2.67;;
13061;SDS011;6597;52.218;9.882;2023-04-30T00:25:26;8.47;;;3.23;;
13061;SDS011;6597;52.218;9.882;2023-04-30T00:27:52;4.50;;;2.93;;
13061;SDS011;6597;52.218;9.882;2023-04-30T00:30:19;8.73;;;3.47;;
13061;SDS011;6597;52.218;9.882;2023-04-30T00:32:46;5.13;;;2.93;;
13061;SDS011;6597;52.218;9.882;2023-04-30T00:35:14;3.93;;;2.50;;
13061;SDS011;6597;52.218;9.882;2023-04-30T00:37:40;3.50;;;3.00;;
13061;SDS011;6597;52.218;9.882;2023-04-30T00:40:07;5.10;;;2.47;;
13061;SDS011;6597;52.218;9.882;2023-04-30T00:42:34;9.67;;;2.57;;
13061;SDS011;6597;52.218;9.882;2023-04-30T00:45:01;8.17;;;2.90;;
13061;SDS011;6597;52.218;9.882;2023-04-30T00:47:27;5.57;;;3.37;;
13061;SDS011;6597;52.218;9.882;2023-04-30T00:49:56;5.73;;;2.90;;
13061;SDS011;6597;52.218;9.882;2023-04-30T00:52:24;3.77;;;2.87;;
13061;SDS011;6597;52.218;9.882;2023-04-30T00:54:50;5.80;;;3.20;;
13061;SDS011;6597;52.218;9.882;2023-04-30T00:57:18;8.93;;;2.97;;
13061;SDS011;6597;52.218;9.882;2023-04-30T00:59:46;5.70;;;3.17;;
13061;SDS011;6597;52.218;9.882;2023-04-30T01:02:13;6.93;;;3.40;;
13061;SDS011;6597;52.218;9.882;2023-04-30T01:04:41;6.83;;;2.77;;
13061;SDS011;6597;52.218;9.882;2023-04-30T01:07:08;6.07;;;3.00;;
13061;SDS011;6597;52.218;9.882;2023-04-30T01:09:36;9.90;;;3.30;;
13061;SDS011;6597;52.218;9.882;2023-04-30T01:12:07;9.67;;;3.23;;
13061;SDS011;6597;52.218;9.882;2023-04-30T01:14:40;4.27;;;2.40;;
13061;SDS011;6597;52.218;9.882;2023-04-30T01:17:16;5.57;;;2.70;;
13061;SDS011;6597;52.218;9.882;2023-04-30T01:19:46;3.53;;;2.67;;
13061;SDS011;6597;52.218;9.882;2023-04-30T01:22:29;7.33;;;3.00;;
13061;SDS011;6597;52.218;9.882;2023-04-30T01:25:13;3.97;;;2.37;;
13061;SDS011;6597;52.218;9.882;2023-04-30T01:28:01;5.13;;;2.30;;
13061;SDS011;6597;52.218;9.882;2023-04-30T01:30:31;8.43;;;2.57;;
13061;SDS011;6597;52.218;9.882;2023-04-30T01:32:59;5.47;;;2.60;;
13061;SDS011;6597;52.218;9.882;2023-04-30T01:35:29;10.30;;;2.90;;
13061;SDS011;6597;52.218;9.882;2023-04-30T01:38:06;6.20;;;2.40;;
13061;SDS011;6597;52.218;9.882;2023-04-30T01:40:41;10.10;;;3.13;;
13061;SDS011;6597;52.218;9.882;2023-04-30T01:43:17;3.10;;;2.37;;
13061;SDS011;6597;52.218;9.882;2023-04-30T01:45:53;4.23;;;2.50;;
13061;SDS011;6597;52.218;9.882;2023-04-30T01:48:30;3.20;;;2.30;;
13061;SDS011;6597;52.218;9.882;2023-04-30T01:51:07;5.93;;;2.60;;
13061;SDS011;6597;52.218;9.882;2023-04-30T01:53:40;5.50;;;2.50;;
13061;SDS011;6597;52.218;9.882;2023-04-30T01:56:10;4.17;;;2.60;;
13061;SDS011;6597;52.218;9.882;2023-04-30T01:58:44;2.90;;;2.13;;
13061;SDS011;6597;52.218;9.882;2023-04-30T02:01:24;3.20;;;2.43;;
13061;SDS011;6597;52.218;9.882;2023-04-30T02:03:51;5.53;;;2.57;;
13061;SDS011;6597;52.218;9.882;2023-04-30T02:06:18;3.03;;;2.37;;
13061;SDS011;6597;52.218;9.882;2023-04-30T02:08:45;5.37;;;2.70;;
13061;SDS011;6597;52.218;9.882;2023-04-30T02:11:11;4.07;;;2.63;;
13061;SDS011;6597;52.218;9.882;2023-04-30T02:13:38;7.83;;;3.00;;
13061;SDS011;6597;52.218;9.882;2023-04-30T02:16:06;6.63;;;2.80;;
13061;SDS011;6597;52.218;9.882;2023-04-30T02:18:33;5.00;;;2.30;;
13061;SDS011;6597;52.218;9.882;2023-04-30T02:20:59;3.17;;;2.40;;
13061;SDS011;6597;52.218;9.882;2023-04-30T02:23:26;6.23;;;2.63;;
13061;SDS011;6597;52.218;9.882;2023-04-30T02:25:52;2.43;;;2.17;;
13061;SDS011;6597;52.218;9.882;2023-04-30T02:28:19;4.97;;;2.77;;
13061;SDS011;6597;52.218;9.882;2023-04-30T02:30:45;3.73;;;2.50;;
13061;SDS011;6597;52.218;9.882;2023-04-30T02:33:16;6.50;;;2.70;;
13061;SDS011;6597;52.218;9.882;2023-04-30T02:35:43;3.93;;;2.73;;
13061;SDS011;6597;52.218;9.882;2023-04-30T02:38:09;4.00;;;2.77;;
13061;SDS011;6597;52.218;9.882;2023-04-30T02:40:36;5.77;;;2.53;;
13061;SDS011;6597;52.218;9.882;2023-04-30T02:43:02;6.73;;;2.77;;
13061;SDS011;6597;52.218;9.882;2023-04-30T02:45:30;4.77;;;2.70;;
13061;SDS011;6597;52.218;9.882;2023-04-30T02:47:57;3.53;;;2.33;;
13061;SDS011;6597;52.218;9.882;2023-04-30T02:50:25;3.57;;;2.80;;
13061;SDS011;6597;52.218;9.882;2023-04-30T02:52:51;4.67;;;3.00;;
13061;SDS011;6597;52.218;9.882;2023-04-30T02:55:20;4.73;;;2.93;;
13061;SDS011;6597;52.218;9.882;2023-04-30T02:57:46;6.43;;;3.00;;
13061;SDS011;6597;52.218;9.882;2023-04-30T03:00:13;11.03;;;3.50;;
13061;SDS011;6597;52.218;9.882;2023-04-30T03:02:40;4.60;;;2.67;;
13061;SDS011;6597;52.218;9.882;2023-04-30T03:05:06;2.90;;;2.53;;
13061;SDS011;6597;52.218;9.882;2023-04-30T03:07:35;5.87;;;3.10;;
13061;SDS011;6597;52.218;9.882;2023-04-30T03:10:01;6.67;;;2.80;;
13061;SDS011;6597;52.218;9.882;2023-04-30T03:12:28;5.00;;;2.87;;
13061;SDS011;6597;52.218;9.882;2023-04-30T03:14:54;3.23;;;2.43;;
13061;SDS011;6597;52.218;9.882;2023-04-30T03:17:21;4.13;;;2.63;;
13061;SDS011;6597;52.218;9.882;2023-04-30T03:19:48;3.80;;;2.73;;
13061;SDS011;6597;52.218;9.882;2023-04-30T03:22:15;3.67;;;2.60;;
13061;SDS011;6597;52.218;9.882;2023-04-30T03:24:44;4.43;;;2.63;;
13061;SDS011;6597;52.218;9.882;2023-04-30T03:27:11;4.50;;;2.50;;
13061;SDS011;6597;52.218;9.882;2023-04-30T03:29:38;7.93;;;2.30;;
13061;SDS011;6597;52.218;9.882;2023-04-30T03:32:04;7.37;;;2.50;;
13061;SDS011;6597;52.218;9.882;2023-04-30T03:34:31;5.53;;;2.50;;
13061;SDS011;6597;52.218;9.882;2023-04-30T03:36:59;6.47;;;2.97;;
13061;SDS011;6597;52.218;9.882;2023-04-30T03:39:26;3.87;;;2.13;;
13061;SDS011;6597;52.218;9.882;2023-04-30T03:41:54;6.57;;;2.60;;
13061;SDS011;6597;52.218;9.882;2023-04-30T03:44:20;4.57;;;2.50;;
13061;SDS011;6597;52.218;9.882;2023-04-30T03:46:47;8.73;;;2.97;;
13061;SDS011;6597;52.218;9.882;2023-04-30T03:49:14;7.63;;;2.83;;
13061;SDS011;6597;52.218;9.882;2023-04-30T03:51:40;5.20;;;2.87;;
13061;SDS011;6597;52.218;9.882;2023-04-30T03:54:07;4.10;;;2.60;;
13061;SDS011;6597;52.218;9.882;2023-04-30T03:56:34;4.47;;;3.13;;
13061;SDS011;6597;52.218;9.882;2023-04-30T03:59:03;3.13;;;2.60;;
13061;SDS011;6597;52.218;9.882;2023-04-30T04:01:31;3.17;;;2.37;;
13061;SDS011;6597;52.218;9.882;2023-04-30T04:03:58;5.17;;;3.20;;
13061;SDS011;6597;52.218;9.882;2023-04-30T04:06:25;3.70;;;2.90;;
13061;SDS011;6597;52.218;9.882;2023-04-30T04:08:51;5.17;;;3.20;;
13061;SDS011;6597;52.218;9.882;2023-04-30T04:11:21;6.33;;;2.87;;
13061;SDS011;6597;52.218;9.882;2023-04-30T04:13:47;4.40;;;2.57;;
13061;SDS011;6597;52.218;9.882;2023-04-30T04:16:15;4.70;;;2.93;;
13061;SDS011;6597;52.218;9.882;2023-04-30T04:18:42;4.20;;;2.83;;
13061;SDS011;6597;52.218;9.882;2023-04-30T04:21:09;10.20;;;3.47;;
13061;SDS011;6597;52.218;9.882;2023-04-30T04:23:36;6.57;;;3.17;;
13061;SDS011;6597;52.218;9.882;2023-04-30T04:26:02;6.27;;;3.20;;
13061;SDS011;6597;52.218;9.882;2023-04-30T04:28:29;4.67;;;3.07;;
13061;SDS011;6597;52.218;9.882;2023-04-30T04:30:56;6.00;;;3.33;;
13061;SDS011;6597;52.218;9.882;2023-04-30T04:33:24;7.53;;;3.03;;
13061;SDS011;6597;52.218;9.882;2023-04-30T04:35:51;14.73;;;3.77;;
13061;SDS011;6597;52.218;9.882;2023-04-30T04:38:18;7.30;;;3.53;;
13061;SDS011;6597;52.218;9.882;2023-04-30T04:40:49;9.50;;;3.50;;
13061;SDS011;6597;52.218;9.882;2023-04-30T04:43:17;6.53;;;3.00;;
13061;SDS011;6597;52.218;9.882;2023-04-30T04:45:44;12.37;;;3.20;;
13061;SDS011;6597;52.218;9.882;2023-04-30T04:48:11;6.37;;;3.50;;
13061;SDS011;6597;52.218;9.882;2023-04-30T04:50:39;5.63;;;2.83;;
13061;SDS011;6597;52.218;9.882;2023-04-30T04:53:05;5.03;;;3.20;;
13061;SDS011;6597;52.218;9.882;2023-04-30T04:55:32;8.53;;;3.47;;
13061;SDS011;6597;52.218;9.882;2023-04-30T04:57:58;8.00;;;3.43;;
13061;SDS011;6597;52.218;9.882;2023-04-30T05:00:25;11.10;;;4.00;;
13061;SDS011;6597;52.218;9.882;2023-04-30T05:02:52;6.40;;;3.17;;
13061;SDS011;6597;52.218;9.882;2023-04-30T05:05:19;3.87;;;3.03;;
13061;SDS011;6597;52.218;9.882;2023-04-30T05:07:47;9.10;;;3.97;;
13061;SDS011;6597;52.218;9.882;2023-04-30T05:10:16;9.37;;;3.00;;
13061;SDS011;6597;52.218;9.882;2023-04-30T05:12:42;4.93;;;3.30;;
13061;SDS011;6597;52.218;9.882;2023-04-30T05:15:09;6.67;;;3.40;;
13061;SDS011;6597;52.218;9.882;2023-04-30T05:17:36;6.70;;;3.10;;
13061;SDS011;6597;52.218;9.882;2023-04-30T05:20:03;4.73;;;3.17;;
13061;SDS011;6597;52.218;9.882;2023-04-30T05:22:31;9.57;;;3.80;;
13061;SDS011;6597;52.218;9.882;2023-04-30T05:24:59;4.80;;;3.13;;
13061;SDS011;6597;52.218;9.882;2023-04-30T05:27:25;6.07;;;3.37;;
13061;SDS011;6597;52.218;9.882;2023-04-30T05:29:52;7.73;;;3.60;;
13061;SDS011;6597;52.218;9.882;2023-04-30T05:32:18;8.43;;;3.60;;
13061;SDS011;6597;52.218;9.882;2023-04-30T05:34:45;6.43;;;3.63;;
13061;SDS011;6597;52.218;9.882;2023-04-30T05:37:11;4.67;;;3.33;;
13061;SDS011;6597;52.218;9.882;2023-04-30T05:39:39;6.27;;;3.90;;
13061;SDS011;6597;52.218;9.882;2023-04-30T05:42:06;4.90;;;3.00;;
13061;SDS011;6597;52.218;9.882;2023-04-30T05:44:33;10.47;;;3.73;;
13061;SDS011;6597;52.218;9.882;2023-04-30T05:47:00;7.47;;;3.47;;
13061;SDS011;6597;52.218;9.882;2023-04-30T05:49:26;6.10;;;3.20;;
13061;SDS011;6597;52.218;9.882;2023-04-30T05:51:53;5.30;;;3.30;;
13061;SDS011;6597;52.218;9.882;2023-04-30T05:54:19;10.23;;;3.63;;
13061;SDS011;6597;52.218;9.882;2023-04-30T05:56:46;11.97;;;4.03;;
13061;SDS011;6597;52.218;9.882;2023-04-30T05:59:14;5.30;;;2.80;;
13061;SDS011;6597;52.218;9.882;2023-04-30T06:01:40;6.93;;;3.93;;
13061;SDS011;6597;52.218;9.882;2023-04-30T06:04:07;3.73;;;2.67;;
13061;SDS011;6597;52.218;9.882;2023-04-30T06:06:33;9.87;;;3.03;;
13061;SDS011;6597;52.218;9.882;2023-04-30T06:09:00;7.67;;;4.00;;
13061;SDS011;6597;52.218;9.882;2023-04-30T06:11:26;6.37;;;3.13;;
13061;SDS011;6597;52.218;9.882;2023-04-30T06:13:54;13.80;;;3.50;;
13061;SDS011;6597;52.218;9.882;2023-04-30T06:16:22;9.80;;;3.10;;
13061;SDS011;6597;52.218;9.882;2023-04-30T06:18:49;6.20;;;3.30;;
13061;SDS011;6597;52.218;9.882;2023-04-30T06:21:15;11.17;;;3.77;;
13061;SDS011;6597;52.218;9.882;2023-04-30T06:23:42;10.03;;;3.47;;
13061;SDS011;6597;52.218;9.882;2023-04-30T06:26:08;12.37;;;3.20;;
13061;SDS011;6597;52.218;9.882;2023-04-30T06:28:35;6.67;;;3.30;;
13061;SDS011;6597;52.218;9.882;2023-04-30T06:31:01;6.77;;;2.90;;
13061;SDS011;6597;52.218;9.882;2023-04-30T06:33:29;7.33;;;3.03;;
13061;SDS011;6597;52.218;9.882;2023-04-30T06:35:56;8.60;;;3.33;;
13061;SDS011;6597;52.218;9.882;2023-04-30T06:38:22;9.97;;;2.93;;
13061;SDS011;6597;52.218;9.882;2023-04-30T06:40:49;6.53;;;3.10;;
13061;SDS011;6597;52.218;9.882;2023-04-30T06:43:16;5.97;;;2.80;;
13061;SDS011;6597;52.218;9.882;2023-04-30T06:45:42;5.87;;;2.57;;
13061;SDS011;6597;52.218;9.882;2023-04-30T06:48:09;2.73;;;1.73;;
13061;SDS011;6597;52.218;9.882;2023-04-30T06:50:36;5.13;;;2.60;;
13061;SDS011;6597;52.218;9.882;2023-04-30T06:53:08;5.23;;;2.43;;
13061;SDS011;6597;52.218;9.882;2023-04-30T06:55:35;8.03;;;2.63;;
13061;SDS011;6597;52.218;9.882;2023-04-30T06:58:02;12.50;;;3.00;;
13061;SDS011;6597;52.218;9.882;2023-04-30T07:00:29;10.13;;;3.10;;
13061;SDS011;6597;52.218;9.882;2023-04-30T07:02:56;4.90;;;2.47;;
13061;SDS011;6597;52.218;9.882;2023-04-30T07:05:24;3.50;;;2.27;;
13061;SDS011;6597;52.218;9.882;2023-04-30T07:07:52;3.97;;;2.30;;
13061;SDS011;6597;52.218;9.882;2023-04-30T07:10:19;5.27;;;2.37;;
13061;SDS011;6597;52.218;9.882;2023-04-30T07:12:45;7.23;;;2.40;;
13061;SDS011;6597;52.218;9.882;2023-04-30T07:15:12;4.20;;;2.47;;
13061;SDS011;6597;52.218;9.882;2023-04-30T07:17:38;10.80;;;2.63;;
13061;SDS011;6597;52.218;9.882;2023-04-30T07:20:06;7.50;;;2.80;;
13061;SDS011;6597;52.218;9.882;2023-04-30T07:22:33;9.93;;;2.60;;
13061;SDS011;6597;52.218;9.882;2023-04-30T07:25:02;6.07;;;2.63;;
13061;SDS011;6597;52.218;9.882;2023-04-30T07:27:29;6.83;;;2.53;;
13061;SDS011;6597;52.218;9.882;2023-04-30T07:29:55;4.07;;;2.47;;
13061;SDS011;6597;52.218;9.882;2023-04-30T07:32:22;6.23;;;2.70;;
13061;SDS011;6597;52.218;9.882;2023-04-30T07:34:51;8.27;;;3.43;;
13061;SDS011;6597;52.218;9.882;2023-04-30T07:37:17;6.87;;;2.73;;
13061;SDS011;6597;52.218;9.882;2023-04-30T07:39:44;2.90;;;2.40;;
13061;SDS011;6597;52.218;9.882;2023-04-30T07:42:12;6.47;;;2.03;;
13061;SDS011;6597;52.218;9.882;2023-04-30T07:44:39;12.03;;;2.30;;
13061;SDS011;6597;52.218;9.882;2023-04-30T07:47:06;7.07;;;2.20;;
13061;SDS011;6597;52.218;9.882;2023-04-30T07:49:33;6.80;;;2.23;;
13061;SDS011;6597;52.218;9.882;2023-04-30T07:52:00;8.80;;;2.33;;
13061;SDS011;6597;52.218;9.882;2023-04-30T07:54:26;7.53;;;2.50;;
13061;SDS011;6597;52.218;9.882;2023-04-30T07:56:53;4.20;;;2.17;;
13061;SDS011;6597;52.218;9.882;2023-04-30T07:59:21;3.70;;;2.10;;
13061;SDS011;6597;52.218;9.882;2023-04-30T08:01:48;2.77;;;1.73;;
13061;SDS011;6597;52.218;9.882;2023-04-30T08:04:15;3.27;;;2.43;;
13061;SDS011;6597;52.218;9.882;2023-04-30T08:06:41;6.23;;;3.17;;
13061;SDS011;6597;52.218;9.882;2023-04-30T08:09:08;7.43;;;3.27;;
13061;SDS011;6597;52.218;9.882;2023-04-30T08:11:34;6.70;;;2.43;;
13061;SDS011;6597;52.218;9.882;2023-04-30T08:14:01;7.83;;;2.20;;
13061;SDS011;6597;52.218;9.882;2023-04-30T08:16:30;5.33;;;2.30;;
13061;SDS011;6597;52.218;9.882;2023-04-30T08:18:56;7.37;;;3.07;;
13061;SDS011;6597;52.218;9.882;2023-04-30T08:21:23;9.80;;;3.43;;
13061;SDS011;6597;52.218;9.882;2023-04-30T08:23:52;11.03;;;3.90;;
13061;SDS011;6597;52.218;9.882;2023-04-30T08:26:18;8.60;;;3.20;;
13061;SDS011;6597;52.218;9.882;2023-04-30T08:28:45;9.77;;;2.60;;
13061;SDS011;6597;52.218;9.882;2023-04-30T08:31:12;6.40;;;2.80;;
13061;SDS011;6597;52.218;9.882;2023-04-30T08:33:40;8.67;;;3.00;;
13061;SDS011;6597;52.218;9.882;2023-04-30T08:36:06;13.87;;;3.93;;
13061;SDS011;6597;52.218;9.882;2023-04-30T08:38:33;8.33;;;3.27;;
13061;SDS011;6597;52.218;9.882;2023-04-30T08:41:10;8.30;;;3.23;;
13061;SDS011;6597;52.218;9.882;2023-04-30T08:43:38;8.60;;;2.70;;
13061;SDS011;6597;52.218;9.882;2023-04-30T08:46:04;10.00;;;2.60;;
13061;SDS011;6597;52.218;9.882;2023-04-30T08:48:31;9.03;;;3.10;;
13061;SDS011;6597;52.218;9.882;2023-04-30T08:51:00;6.20;;;2.30;;
13061;SDS011;6597;52.218;9.882;2023-04-30T08:53:28;7.43;;;2.47;;
13061;SDS011;6597;52.218;9.882;2023-04-30T08:55:55;5.40;;;1.87;;
13061;SDS011;6597;52.218;9.882;2023-04-30T08:58:22;3.40;;;2.27;;
13061;SDS011;6597;52.218;9.882;2023-04-30T09:00:49;8.57;;;2.30;;
13061;SDS011;6597;52.218;9.882;2023-04-30T09:03:15;4.30;;;2.37;;
13061;SDS011;6597;52.218;9.882;2023-04-30T09:05:42;6.33;;;2.37;;
13061;SDS011;6597;52.218;9.882;2023-04-30T09:08:11;4.83;;;2.40;;
13061;SDS011;6597;52.218;9.882;2023-04-30T09:10:42;5.53;;;2.23;;
13061;SDS011;6597;52.218;9.882;2023-04-30T09:13:09;5.47;;;2.40;;
13061;SDS011;6597;52.218;9.882;2023-04-30T09:15:36;4.67;;;2.60;;
13061;SDS011;6597;52.218;9.882;2023-04-30T09:18:09;4.43;;;2.40;;
13061;SDS011;6597;52.218;9.882;2023-04-30T09:20:53;5.77;;;2.80;;
13061;SDS011;6597;52.218;9.882;2023-04-30T09:23:22;6.63;;;2.57;;
13061;SDS011;6597;52.218;9.882;2023-04-30T09:25:49;3.10;;;1.80;;
13061;SDS011;6597;52.218;9.882;2023-04-30T09:28:16;10.40;;;2.53;;
13061;SDS011;6597;52.218;9.882;2023-04-30T09:30:48;9.13;;;2.97;;
13061;SDS011;6597;52.218;9.882;2023-04-30T09:33:15;4.23;;;1.90;;
13061;SDS011;6597;52.218;9.882;2023-04-30T09:35:42;4.77;;;2.27;;
13061;SDS011;6597;52.218;9.882;2023-04-30T09:41:02;4.90;;;2.03;;
13061;SDS011;6597;52.218;9.882;2023-04-30T09:43:29;5.67;;;2.70;;
13061;SDS011;6597;52.218;9.882;2023-04-30T09:45:56;4.53;;;1.97;;
13061;SDS011;6597;52.218;9.882;2023-04-30T09:48:24;3.07;;;1.83;;
13061;SDS011;6597;52.218;9.882;2023-04-30T09:50:52;2.60;;;1.80;;
13061;SDS011;6597;52.218;9.882;2023-04-30T09:53:19;3.53;;;1.97;;
13061;SDS011;6597;52.218;9.882;2023-04-30T09:55:48;2.80;;;1.70;;
13061;SDS011;6597;52.218;9.882;2023-04-30T09:58:17;3.63;;;1.77;;
13061;SDS011;6597;52.218;9.882;2023-04-30T10:00:44;2.97;;;1.73;;
13061;SDS011;6597;52.218;9.882;2023-04-30T10:03:12;2.43;;;1.40;;
13061;SDS011;6597;52.218;9.882;2023-04-30T10:05:40;3.37;;;1.97;;
13061;SDS011;6597;52.218;9.882;2023-04-30T10:08:12;3.83;;;1.90;;
13061;SDS011;6597;52.218;9.882;2023-04-30T10:10:44;4.60;;;1.87;;
13061;SDS011;6597;52.218;9.882;2023-04-30T10:13:17;4.70;;;2.00;;
13061;SDS011;6597;52.218;9.882;2023-04-30T10:15:47;3.17;;;1.80;;
13061;SDS011;6597;52.218;9.882;2023-04-30T10:18:18;5.17;;;2.10;;
13061;SDS011;6597;52.218;9.882;2023-04-30T10:20:47;5.17;;;2.23;;
13061;SDS011;6597;52.218;9.882;2023-04-30T10:23:18;4.77;;;1.73;;
13061;SDS011;6597;52.218;9.882;2023-04-30T10:25:46;6.30;;;1.93;;
13061;SDS011;6597;52.218;9.882;2023-04-30T10:28:13;4.63;;;1.93;;
13061;SDS011;6597;52.218;9.882;2023-04-30T10:30:42;5.50;;;2.40;;
13061;SDS011;6597;52.218;9.882;2023-04-30T10:33:12;9.33;;;1.80;;
13061;SDS011;6597;52.218;9.882;2023-04-30T10:35:48;2.50;;;1.70;;
13061;SDS011;6597;52.218;9.882;2023-04-30T10:38:20;15.47;;;6.33;;
13061;SDS011;6597;52.218;9.882;2023-04-30T10:40:49;7.15;;;3.80;;
13061;SDS011;6597;52.218;9.882;2023-04-30T10:43:16;3.00;;;2.10;;
13061;SDS011;6597;52.218;9.882;2023-04-30T10:45:45;7.05;;;2.20;;
13061;SDS011;6597;52.218;9.882;2023-04-30T10:48:11;8.50;;;1.90;;
13061;SDS011;6597;52.218;9.882;2023-04-30T10:50:41;5.22;;;2.53;;
13061;SDS011;6597;52.218;9.882;2023-04-30T10:53:11;3.70;;;1.45;;
13061;SDS011;6597;52.218;9.882;2023-04-30T10:55:51;3.22;;;2.05;;
13061;SDS011;6597;52.218;9.882;2023-04-30T10:58:23;5.57;;;1.98;;
13061;SDS011;6597;52.218;9.882;2023-04-30T11:00:58;4.00;;;1.95;;
13061;SDS011;6597;52.218;9.882;2023-04-30T11:03:27;4.30;;;1.83;;
13061;SDS011;6597;52.218;9.882;2023-04-30T11:05:55;5.68;;;1.90;;
13061;SDS011;6597;52.218;9.882;2023-04-30T11:08:31;5.38;;;1.90;;
13061;SDS011;6597;52.218;9.882;2023-04-30T11:10:58;7.25;;;2.22;;
13061;SDS011;6597;52.218;9.882;2023-04-30T11:13:25;9.10;;;2.13;;
13061;SDS011;6597;52.218;9.882;2023-04-30T11:15:53;5.63;;;1.98;;
13061;SDS011;6597;52.218;9.882;2023-04-30T11:18:28;4.47;;;2.13;;
13061;SDS011;6597;52.218;9.882;2023-04-30T11:20:56;4.25;;;1.95;;
13061;SDS011;6597;52.218;9.882;2023-04-30T11:23:24;8.75;;;2.30;;
13061;SDS011;6597;52.218;9.882;2023-04-30T11:25:53;3.80;;;1.75;;
13061;SDS011;6597;52.218;9.882;2023-04-30T11:28:23;7.32;;;2.25;;
13061;SDS011;6597;52.218;9.882;2023-04-30T11:30:51;4.65;;;1.67;;
13061;SDS011;6597;52.218;9.882;2023-04-30T11:33:21;6.25;;;2.08;;
13061;SDS011;6597;52.218;9.882;2023-04-30T11:35:49;3.67;;;1.58;;
13061;SDS011;6597;52.218;9.882;2023-04-30T11:38:18;2.75;;;1.50;;
13061;SDS011;6597;52.218;9.882;2023-04-30T11:40:45;2.97;;;1.52;;
13061;SDS011;6597;52.218;9.882;2023-04-30T11:43:20;1.98;;;1.40;;
13061;SDS011;6597;52.218;9.882;2023-04-30T11:46:00;3.05;;;1.80;;
13061;SDS011;6597;52.218;9.882;2023-04-30T11:48:31;6.07;;;2.35;;
13061;SDS011;6597;52.218;9.882;2023-04-30T11:50:58;4.65;;;2.20;;
13061;SDS011;6597;52.218;9.882;2023-04-30T11:53:27;5.38;;;2.75;;
13061;SDS011;6597;52.218;9.882;2023-04-30T11:55:55;6.45;;;2.08;;
13061;SDS011;6597;52.218;9.882;2023-04-30T11:58:21;5.20;;;2.00;;
13061;SDS011;6597;52.218;9.882;2023-04-30T12:00:48;5.80;;;1.85;;
13061;SDS011;6597;52.218;9.882;2023-04-30T12:03:17;4.28;;;2.28;;
13061;SDS011;6597;52.218;9.882;2023-04-30T12:05:45;6.88;;;2.10;;
13061;SDS011;6597;52.218;9.882;2023-04-30T12:08:12;4.18;;;2.33;;
13061;SDS011;6597;52.218;9.882;2023-04-30T12:10:39;6.20;;;2.03;;
13061;SDS011;6597;52.218;9.882;2023-04-30T12:13:05;7.65;;;2.53;;
13061;SDS011;6597;52.218;9.882;2023-04-30T12:15:32;6.05;;;2.85;;
13061;SDS011;6597;52.218;9.882;2023-04-30T12:17:58;4.18;;;2.08;;
13061;SDS011;6597;52.218;9.882;2023-04-30T12:20:36;4.78;;;1.98;;
13061;SDS011;6597;52.218;9.882;2023-04-30T12:23:05;5.47;;;2.40;;
13061;SDS011;6597;52.218;9.882;2023-04-30T12:25:38;6.07;;;2.38;;
13061;SDS011;6597;52.218;9.882;2023-04-30T12:28:06;7.38;;;2.60;;
13061;SDS011;6597;52.218;9.882;2023-04-30T12:30:32;5.35;;;1.92;;
13061;SDS011;6597;52.218;9.882;2023-04-30T12:32:59;3.97;;;2.08;;
13061;SDS011;6597;52.218;9.882;2023-04-30T12:35:28;5.93;;;2.08;;
13061;SDS011;6597;52.218;9.882;2023-04-30T12:38:00;3.58;;;2.10;;
13061;SDS011;6597;52.218;9.882;2023-04-30T12:40:30;5.18;;;2.17;;
13061;SDS011;6597;52.218;9.882;2023-04-30T12:43:00;3.78;;;1.95;;
13061;SDS011;6597;52.218;9.882;2023-04-30T12:45:47;8.25;;;2.38;;
13061;SDS011;6597;52.218;9.882;2023-04-30T12:48:16;6.10;;;2.65;;
13061;SDS011;6597;52.218;9.882;2023-04-30T12:50:49;6.53;;;3.10;;
13061;SDS011;6597;52.218;9.882;2023-04-30T12:53:17;2.58;;;1.85;;
13061;SDS011;6597;52.218;9.882;2023-04-30T12:58:34;4.25;;;1.98;;
13061;SDS011;6597;52.218;9.882;2023-04-30T13:01:01;4.20;;;2.05;;
13061;SDS011;6597;52.218;9.882;2023-04-30T13:03:27;4.47;;;2.13;;
13061;SDS011;6597;52.218;9.882;2023-04-30T13:05:54;4.93;;;2.13;;
13061;SDS011;6597;52.218;9.882;2023-04-30T13:08:22;4.20;;;2.13;;
13061;SDS011;6597;52.218;9.882;2023-04-30T13:10:49;5.97;;;2.58;;
13061;SDS011;6597;52.218;9.882;2023-04-30T13:13:17;3.83;;;1.98;;
13061;SDS011;6597;52.218;9.882;2023-04-30T13:15:45;4.00;;;2.25;;
13061;SDS011;6597;52.218;9.882;2023-04-30T13:18:12;3.40;;;2.28;;
13061;SDS011;6597;52.218;9.882;2023-04-30T13:20:39;3.78;;;2.15;;
13061;SDS011;6597;52.218;9.882;2023-04-30T13:23:08;5.13;;;1.63;;
13061;SDS011;6597;52.218;9.882;2023-04-30T13:25:36;2.63;;;2.05;;
13061;SDS011;6597;52.218;9.882;2023-04-30T13:28:03;3.95;;;1.80;;
13061;SDS011;6597;52.218;9.882;2023-04-30T13:30:31;5.45;;;2.22;;
13061;SDS011;6597;52.218;9.882;2023-04-30T13:32:58;2.55;;;1.80;;
13061;SDS011;6597;52.218;9.882;2023-04-30T13:35:25;5.07;;;2.15;;
13061;SDS011;6597;52.218;9.882;2023-04-30T13:37:52;6.20;;;2.80;;
13061;SDS011;6597;52.218;9.882;2023-04-30T13:40:19;5.55;;;2.20;;
13061;SDS011;6597;52.218;9.882;2023-04-30T13:42:46;4.68;;;2.13;;
13061;SDS011;6597;52.218;9.882;2023-04-30T13:45:13;5.88;;;2.25;;
13061;SDS011;6597;52.218;9.882;2023-04-30T13:47:41;9.82;;;2.47;;
13061;SDS011;6597;52.218;9.882;2023-04-30T13:50:08;4.13;;;1.92;;
13061;SDS011;6597;52.218;9.882;2023-04-30T13:52:35;5.07;;;2.17;;
13061;SDS011;6597;52.218;9.882;2023-04-30T13:55:02;4.80;;;2.38;;
13061;SDS011;6597;52.218;9.882;2023-04-30T13:57:30;3.85;;;2.33;;
13061;SDS011;6597;52.218;9.882;2023-04-30T13:59:57;3.95;;;2.08;;
13061;SDS011;6597;52.218;9.882;2023-04-30T14:02:24;2.08;;;1.80;;
13061;SDS011;6597;52.218;9.882;2023-04-30T14:04:53;4.10;;;2.20;;
13061;SDS011;6597;52.218;9.882;2023-04-30T14:07:20;4.05;;;2.20;;
13061;SDS011;6597;52.218;9.882;2023-04-30T14:09:46;3.90;;;2.15;;
13061;SDS011;6597;52.218;9.882;2023-04-30T14:12:14;8.75;;;2.15;;
13061;SDS011;6597;52.218;9.882;2023-04-30T14:14:40;3.38;;;1.80;;
13061;SDS011;6597;52.218;9.882;2023-04-30T14:17:07;4.78;;;2.63;;
13061;SDS011;6597;52.218;9.882;2023-04-30T14:19:34;6.30;;;2.35;;
13061;SDS011;6597;52.218;9.882;2023-04-30T14:22:02;3.72;;;2.13;;
13061;SDS011;6597;52.218;9.882;2023-04-30T14:24:28;2.85;;;2.08;;
13061;SDS011;6597;52.218;9.882;2023-04-30T14:26:55;3.75;;;1.88;;
13061;SDS011;6597;52.218;9.882;2023-04-30T14:29:24;5.75;;;2.13;;
13061;SDS011;6597;52.218;9.882;2023-04-30T14:31:51;8.77;;;2.20;;
13061;SDS011;6597;52.218;9.882;2023-04-30T14:34:18;4.10;;;1.67;;
13061;SDS011;6597;52.218;9.882;2023-04-30T14:37:04;5.03;;;1.77;;
13061;SDS011;6597;52.218;9.882;2023-04-30T14:39:31;3.90;;;2.00;;
13061;SDS011;6597;52.218;9.882;2023-04-30T14:41:57;2.95;;;1.75;;
13061;SDS011;6597;52.218;9.882;2023-04-30T14:44:25;4.45;;;2.20;;
13061;SDS011;6597;52.218;9.882;2023-04-30T14:46:52;4.55;;;2.13;;
13061;SDS011;6597;52.218;9.882;2023-04-30T14:49:19;3.63;;;1.77;;
13061;SDS011;6597;52.218;9.882;2023-04-30T14:51:46;3.90;;;1.95;;
13061;SDS011;6597;52.218;9.882;2023-04-30T14:54:14;7.00;;;2.17;;
13061;SDS011;6597;52.218;9.882;2023-04-30T14:56:40;5.10;;;2.20;;
13061;SDS011;6597;52.218;9.882;2023-04-30T14:59:08;7.38;;;2.38;;
13061;SDS011;6597;52.218;9.882;2023-04-30T15:01:35;7.50;;;2.08;;
13061;SDS011;6597;52.218;9.882;2023-04-30T15:04:02;5.45;;;2.30;;
13061;SDS011;6597;52.218;9.882;2023-04-30T15:06:29;4.40;;;2.10;;
13061;SDS011;6597;52.218;9.882;2023-04-30T15:08:55;4.38;;;1.88;;
13061;SDS011;6597;52.218;9.882;2023-04-30T15:11:24;4.25;;;1.90;;